sensor_id;sensor_type;location;lat;lon;timestamp;pressure;altitude;pressure_sealevel;temperature;humidity
78841;BME280;68379;47.190;27.558;2024-03-17T00:00:17;100163.09;;;4.66;79.64
78841;BME280;68379;47.190;27.558;2024-03-17T00:03:10;100159.44;;;4.63;80.11
78841;BME280;68379;47.190;27.558;2024-03-17T00:05:41;100154.06;;;4.60;80.03
78841;BME280;68379;47.190;27.558;2024-03-17T00:08:14;100153.02;;;4.57;80.03
78841;BME280;68379;47.190;27.558;2024-03-17T00:10:45;100155.51;;;4.54;80.26
78841;BME280;68379;47.190;27.558;2024-03-17T00:13:20;100156.43;;;4.50;80.72
78841;BME280;68379;47.190;27.558;2024-03-17T00:15:53;100157.52;;;4.46;80.33
78841;BME280;68379;47.190;27.558;2024-03-17T00:18:24;100156.48;;;4.44;79.96
78841;BME280;68379;47.190;27.558;2024-03-17T00:20:58;100151.96;;;4.40;79.90
78841;BME280;68379;47.190;27.558;2024-03-17T00:23:29;100150.77;;;4.38;79.69
78841;BME280;68379;47.190;27.558;2024-03-17T00:26:01;100148.14;;;4.35;79.51
78841;BME280;68379;47.190;27.558;2024-03-17T00:28:32;100148.70;;;4.33;80.17
78841;BME280;68379;47.190;27.558;2024-03-17T00:31:06;100146.81;;;4.30;79.71
78841;BME280;68379;47.190;27.558;2024-03-17T00:33:40;100145.62;;;4.26;80.14
78841;BME280;68379;47.190;27.558;2024-03-17T00:36:12;100150.03;;;4.21;80.47
78841;BME280;68379;47.190;27.558;2024-03-17T00:38:46;100150.77;;;4.17;80.17
78841;BME280;68379;47.190;27.558;2024-03-17T00:41:17;100148.01;;;4.13;80.30
78841;BME280;68379;47.190;27.558;2024-03-17T00:43:50;100146.29;;;4.10;80.62
78841;BME280;68379;47.190;27.558;2024-03-17T00:46:22;100146.11;;;4.08;80.85
78841;BME280;68379;47.190;27.558;2024-03-17T00:48:57;100143.14;;;4.08;81.46
78841;BME280;68379;47.190;27.558;2024-03-17T00:51:30;100139.85;;;4.06;81.03
78841;BME280;68379;47.190;27.558;2024-03-17T00:54:02;100140.58;;;4.02;80.71
78841;BME280;68379;47.190;27.558;2024-03-17T00:56:33;100142.17;;;3.99;80.80
78841;BME280;68379;47.190;27.558;2024-03-17T00:59:06;100138.71;;;3.96;80.83
78841;BME280;68379;47.190;27.558;2024-03-17T01:01:37;100137.51;;;3.92;81.46
78841;BME280;68379;47.190;27.558;2024-03-17T01:04:08;100135.62;;;3.87;81.24
78841;BME280;68379;47.190;27.558;2024-03-17T01:06:40;100136.69;;;3.83;81.83
78841;BME280;68379;47.190;27.558;2024-03-17T01:09:13;100136.20;;;3.78;81.39
78841;BME280;68379;47.190;27.558;2024-03-17T01:11:44;100134.16;;;3.71;80.73
78841;BME280;68379;47.190;27.558;2024-03-17T01:14:16;100135.23;;;3.65;80.29
78841;BME280;68379;47.190;27.558;2024-03-17T01:16:47;100128.30;;;3.58;80.33
78841;BME280;68379;47.190;27.558;2024-03-17T01:19:18;100124.48;;;3.53;80.53
78841;BME280;68379;47.190;27.558;2024-03-17T01:21:50;100126.09;;;3.47;80.06
78841;BME280;68379;47.190;27.558;2024-03-17T01:24:22;100127.02;;;3.40;81.10
78841;BME280;68379;47.190;27.558;2024-03-17T01:26:54;100125.66;;;3.32;82.13
78841;BME280;68379;47.190;27.558;2024-03-17T01:29:26;100127.25;;;3.29;81.84
78841;BME280;68379;47.190;27.558;2024-03-17T01:31:57;100127.98;;;3.22;81.79
78841;BME280;68379;47.190;27.558;2024-03-17T01:34:29;100128.02;;;3.14;81.95
78841;BME280;68379;47.190;27.558;2024-03-17T01:37:01;100127.52;;;3.07;80.24
78841;BME280;68379;47.190;27.558;2024-03-17T01:39:32;100128.09;;;2.99;81.12
78841;BME280;68379;47.190;27.558;2024-03-17T01:42:05;100127.06;;;2.92;83.40
78841;BME280;68379;47.190;27.558;2024-03-17T01:44:38;100126.91;;;2.86;84.43
78841;BME280;68379;47.190;27.558;2024-03-17T01:47:10;100124.83;;;2.81;84.42
78841;BME280;68379;47.190;27.558;2024-03-17T01:49:43;100128.33;;;2.77;83.41
78841;BME280;68379;47.190;27.558;2024-03-17T01:52:15;100126.25;;;2.73;84.32
78841;BME280;68379;47.190;27.558;2024-03-17T01:54:47;100125.39;;;2.71;83.23
78841;BME280;68379;47.190;27.558;2024-03-17T01:57:19;100125.58;;;2.67;82.90
78841;BME280;68379;47.190;27.558;2024-03-17T01:59:51;100124.18;;;2.64;83.53
78841;BME280;68379;47.190;27.558;2024-03-17T02:02:24;100119.66;;;2.62;85.07
78841;BME280;68379;47.190;27.558;2024-03-17T02:04:55;100118.09;;;2.60;84.86
78841;BME280;68379;47.190;27.558;2024-03-17T02:07:27;100113.21;;;2.58;84.48
78841;BME280;68379;47.190;27.558;2024-03-17T02:09:59;100113.03;;;2.56;84.16
78841;BME280;68379;47.190;27.558;2024-03-17T02:12:31;100113.73;;;2.54;83.26
78841;BME280;68379;47.190;27.558;2024-03-17T02:15:04;100113.41;;;2.51;84.16
78841;BME280;68379;47.190;27.558;2024-03-17T02:17:37;100113.58;;;2.50;84.27
78841;BME280;68379;47.190;27.558;2024-03-17T02:20:10;100109.73;;;2.49;83.83
78841;BME280;68379;47.190;27.558;2024-03-17T02:22:42;100108.53;;;2.48;84.95
78841;BME280;68379;47.190;27.558;2024-03-17T02:25:14;100106.78;;;2.49;84.95
78841;BME280;68379;47.190;27.558;2024-03-17T02:27:45;100104.34;;;2.47;85.16
78841;BME280;68379;47.190;27.558;2024-03-17T02:30:17;100106.09;;;2.48;85.33
78841;BME280;68379;47.190;27.558;2024-03-17T02:32:55;100103.64;;;2.48;85.00
78841;BME280;68379;47.190;27.558;2024-03-17T02:35:26;100100.50;;;2.48;85.32
78841;BME280;68379;47.190;27.558;2024-03-17T02:37:58;100100.34;;;2.48;85.07
78841;BME280;68379;47.190;27.558;2024-03-17T02:40:29;100097.89;;;2.47;86.17
78841;BME280;68379;47.190;27.558;2024-03-17T02:43:02;100096.15;;;2.47;86.26
78841;BME280;68379;47.190;27.558;2024-03-17T02:45:36;100092.84;;;2.48;86.55
78841;BME280;68379;47.190;27.558;2024-03-17T02:48:08;100087.77;;;2.48;86.13
78841;BME280;68379;47.190;27.558;2024-03-17T02:50:40;100091.60;;;2.49;86.21
78841;BME280;68379;47.190;27.558;2024-03-17T02:53:11;100088.46;;;2.49;86.54
78841;BME280;68379;47.190;27.558;2024-03-17T02:55:43;100090.21;;;2.51;87.03
78841;BME280;68379;47.190;27.558;2024-03-17T02:58:16;100085.49;;;2.51;86.83
78841;BME280;68379;47.190;27.558;2024-03-17T03:00:47;100083.05;;;2.52;85.91
78841;BME280;68379;47.190;27.558;2024-03-17T03:03:19;100079.91;;;2.53;87.13
78841;BME280;68379;47.190;27.558;2024-03-17T03:05:51;100076.23;;;2.55;86.75
78841;BME280;68379;47.190;27.558;2024-03-17T03:08:23;100075.55;;;2.56;85.84
78841;BME280;68379;47.190;27.558;2024-03-17T03:10:54;100077.98;;;2.58;86.18
78841;BME280;68379;47.190;27.558;2024-03-17T03:13:26;100081.47;;;2.59;86.21
78841;BME280;68379;47.190;27.558;2024-03-17T03:16:06;100081.63;;;2.60;85.96
78841;BME280;68379;47.190;27.558;2024-03-17T03:18:38;100083.73;;;2.62;86.45
78841;BME280;68379;47.190;27.558;2024-03-17T03:21:09;100085.80;;;2.64;85.93
78841;BME280;68379;47.190;27.558;2024-03-17T03:23:41;100085.63;;;2.65;86.16
78841;BME280;68379;47.190;27.558;2024-03-17T03:26:12;100090.85;;;2.67;86.48
78841;BME280;68379;47.190;27.558;2024-03-17T03:28:44;100087.71;;;2.69;84.25
78841;BME280;68379;47.190;27.558;2024-03-17T03:31:17;100088.58;;;2.69;85.31
78841;BME280;68379;47.190;27.558;2024-03-17T03:33:48;100089.98;;;2.70;86.26
78841;BME280;68379;47.190;27.558;2024-03-17T03:36:20;100089.27;;;2.72;85.81
78841;BME280;68379;47.190;27.558;2024-03-17T03:38:51;100090.84;;;2.73;86.40
78841;BME280;68379;47.190;27.558;2024-03-17T03:41:25;100086.82;;;2.73;87.35
78841;BME280;68379;47.190;27.558;2024-03-17T03:43:56;100087.52;;;2.74;87.71
78841;BME280;68379;47.190;27.558;2024-03-17T03:46:28;100083.16;;;2.73;87.74
78841;BME280;68379;47.190;27.558;2024-03-17T03:48:59;100084.03;;;2.73;87.26
78841;BME280;68379;47.190;27.558;2024-03-17T03:51:31;100081.95;;;2.73;87.21
78841;BME280;68379;47.190;27.558;2024-03-17T03:54:03;100080.54;;;2.73;86.17
78841;BME280;68379;47.190;27.558;2024-03-17T03:56:36;100081.05;;;2.73;86.01
78841;BME280;68379;47.190;27.558;2024-03-17T03:59:08;100081.59;;;2.73;87.00
78841;BME280;68379;47.190;27.558;2024-03-17T04:01:39;100082.98;;;2.72;87.46
78841;BME280;68379;47.190;27.558;2024-03-17T04:04:10;100085.08;;;2.73;86.93
78841;BME280;68379;47.190;27.558;2024-03-17T04:06:42;100083.67;;;2.74;87.19
78841;BME280;68379;47.190;27.558;2024-03-17T04:09:14;100082.65;;;2.73;86.70
78841;BME280;68379;47.190;27.558;2024-03-17T04:11:45;100085.61;;;2.73;86.77
78841;BME280;68379;47.190;27.558;2024-03-17T04:14:17;100081.23;;;2.73;86.82
78841;BME280;68379;47.190;27.558;2024-03-17T04:16:49;100079.51;;;2.72;87.24
78841;BME280;68379;47.190;27.558;2024-03-17T04:19:20;100078.29;;;2.71;86.96
78841;BME280;68379;47.190;27.558;2024-03-17T04:21:52;100082.30;;;2.69;87.18
78841;BME280;68379;47.190;27.558;2024-03-17T04:24:25;100075.86;;;2.68;87.47
78841;BME280;68379;47.190;27.558;2024-03-17T04:26:57;100084.23;;;2.66;88.74
78841;BME280;68379;47.190;27.558;2024-03-17T04:29:28;100084.94;;;2.66;87.91
78841;BME280;68379;47.190;27.558;2024-03-17T04:32:01;100086.32;;;2.65;87.98
78841;BME280;68379;47.190;27.558;2024-03-17T04:34:32;100087.38;;;2.66;88.35
78841;BME280;68379;47.190;27.558;2024-03-17T04:37:05;100087.38;;;2.65;88.21
78841;BME280;68379;47.190;27.558;2024-03-17T04:39:36;100088.42;;;2.66;88.53
78841;BME280;68379;47.190;27.558;2024-03-17T04:42:09;100089.99;;;2.66;88.31
78841;BME280;68379;47.190;27.558;2024-03-17T04:44:41;100086.34;;;2.66;88.10
78841;BME280;68379;47.190;27.558;2024-03-17T04:47:14;100083.35;;;2.67;88.16
78841;BME280;68379;47.190;27.558;2024-03-17T04:49:46;100085.63;;;2.69;88.45
78841;BME280;68379;47.190;27.558;2024-03-17T04:52:19;100092.24;;;2.72;87.78
78841;BME280;68379;47.190;27.558;2024-03-17T04:54:51;100097.30;;;2.75;87.55
78841;BME280;68379;47.190;27.558;2024-03-17T04:57:22;100091.52;;;2.78;87.48
78841;BME280;68379;47.190;27.558;2024-03-17T04:59:54;100090.46;;;2.81;87.93
78841;BME280;68379;47.190;27.558;2024-03-17T05:02:28;100093.23;;;2.84;87.64
78841;BME280;68379;47.190;27.558;2024-03-17T05:05:01;100091.31;;;2.88;87.33
78841;BME280;68379;47.190;27.558;2024-03-17T05:07:36;100086.58;;;2.92;87.12
78841;BME280;68379;47.190;27.558;2024-03-17T05:10:08;100090.40;;;2.96;87.56
78841;BME280;68379;47.190;27.558;2024-03-17T05:12:48;100085.83;;;3.01;88.56
78841;BME280;68379;47.190;27.558;2024-03-17T05:15:20;100086.34;;;3.06;89.50
78841;BME280;68379;47.190;27.558;2024-03-17T05:17:51;100072.89;;;3.07;88.95
78841;BME280;68379;47.190;27.558;2024-03-17T05:20:22;100082.61;;;3.18;88.53
78841;BME280;68379;47.190;27.558;2024-03-17T05:22:54;100079.95;;;3.24;88.69
78841;BME280;68379;47.190;27.558;2024-03-17T05:25:25;100081.48;;;3.32;88.27
78841;BME280;68379;47.190;27.558;2024-03-17T05:27:57;100080.39;;;3.40;88.34
78841;BME280;68379;47.190;27.558;2024-03-17T05:30:29;100083.67;;;3.48;88.04
78841;BME280;68379;47.190;27.558;2024-03-17T05:33:02;100077.30;;;3.57;88.41
78841;BME280;68379;47.190;27.558;2024-03-17T05:35:34;100078.30;;;3.66;88.10
78841;BME280;68379;47.190;27.558;2024-03-17T05:38:06;100080.32;;;3.73;88.37
78841;BME280;68379;47.190;27.558;2024-03-17T05:40:40;100085.48;;;3.83;88.10
78841;BME280;68379;47.190;27.558;2024-03-17T05:43:12;100083.48;;;3.94;88.40
78841;BME280;68379;47.190;27.558;2024-03-17T05:45:43;100085.14;;;4.04;88.14
78841;BME280;68379;47.190;27.558;2024-03-17T05:48:15;100085.41;;;4.13;87.67
78841;BME280;68379;47.190;27.558;2024-03-17T05:50:46;100084.97;;;4.22;87.38
78841;BME280;68379;47.190;27.558;2024-03-17T05:53:19;100092.91;;;4.33;87.05
78841;BME280;68379;47.190;27.558;2024-03-17T05:55:50;100094.73;;;4.44;87.29
78841;BME280;68379;47.190;27.558;2024-03-17T05:58:23;100093.02;;;4.56;87.20
78841;BME280;68379;47.190;27.558;2024-03-17T06:00:54;100094.42;;;4.71;87.06
78841;BME280;68379;47.190;27.558;2024-03-17T06:03:26;100093.91;;;4.84;87.15
78841;BME280;68379;47.190;27.558;2024-03-17T06:06:02;100091.49;;;4.97;86.78
78841;BME280;68379;47.190;27.558;2024-03-17T06:08:35;100092.23;;;5.09;86.78
78841;BME280;68379;47.190;27.558;2024-03-17T06:11:07;100094.00;;;5.19;86.46
78841;BME280;68379;47.190;27.558;2024-03-17T06:13:40;100097.84;;;5.33;86.37
78841;BME280;68379;47.190;27.558;2024-03-17T06:16:12;100102.24;;;5.45;85.99
78841;BME280;68379;47.190;27.558;2024-03-17T06:18:43;100098.71;;;5.58;85.98
78841;BME280;68379;47.190;27.558;2024-03-17T06:21:17;100101.14;;;5.72;85.60
78841;BME280;68379;47.190;27.558;2024-03-17T06:23:49;100103.92;;;5.84;85.43
78841;BME280;68379;47.190;27.558;2024-03-17T06:26:20;100103.58;;;5.97;85.34
78841;BME280;68379;47.190;27.558;2024-03-17T06:28:54;100103.92;;;6.07;85.04
78841;BME280;68379;47.190;27.558;2024-03-17T06:31:25;100105.38;;;6.16;84.82
78841;BME280;68379;47.190;27.558;2024-03-17T06:33:57;100101.60;;;6.21;84.78
78841;BME280;68379;47.190;27.558;2024-03-17T06:36:30;100104.64;;;6.27;84.68
78841;BME280;68379;47.190;27.558;2024-03-17T06:39:02;100104.27;;;6.38;84.74
78841;BME280;68379;47.190;27.558;2024-03-17T06:41:36;100106.00;;;6.49;84.63
78841;BME280;68379;47.190;27.558;2024-03-17T06:44:08;100110.50;;;6.62;84.26
78841;BME280;68379;47.190;27.558;2024-03-17T06:46:40;100110.30;;;6.72;83.69
78841;BME280;68379;47.190;27.558;2024-03-17T06:49:12;100110.52;;;6.80;83.78
78841;BME280;68379;47.190;27.558;2024-03-17T06:51:44;100111.39;;;6.88;83.61
78841;BME280;68379;47.190;27.558;2024-03-17T06:54:16;100109.27;;;6.97;83.23
78841;BME280;68379;47.190;27.558;2024-03-17T06:56:48;100110.67;;;7.07;83.30
78841;BME280;68379;47.190;27.558;2024-03-17T06:59:21;100108.86;;;7.18;83.18
78841;BME280;68379;47.190;27.558;2024-03-17T07:01:53;100107.03;;;7.29;83.05
78841;BME280;68379;47.190;27.558;2024-03-17T07:04:25;100103.79;;;7.41;82.97
78841;BME280;68379;47.190;27.558;2024-03-17T07:06:57;100100.26;;;7.50;82.66
78841;BME280;68379;47.190;27.558;2024-03-17T07:09:29;100096.54;;;7.58;82.38
78841;BME280;68379;47.190;27.558;2024-03-17T07:12:01;100092.70;;;7.65;81.87
78841;BME280;68379;47.190;27.558;2024-03-17T07:14:33;100092.39;;;7.71;82.32
78841;BME280;68379;47.190;27.558;2024-03-17T07:17:05;100089.71;;;7.79;81.54
78841;BME280;68379;47.190;27.558;2024-03-17T07:19:37;100093.55;;;7.88;82.05
78841;BME280;68379;47.190;27.558;2024-03-17T07:22:08;100096.71;;;7.96;81.72
78841;BME280;68379;47.190;27.558;2024-03-17T07:24:40;100095.05;;;8.05;82.23
78841;BME280;68379;47.190;27.558;2024-03-17T07:27:17;100084.46;;;8.14;81.46
78841;BME280;68379;47.190;27.558;2024-03-17T07:29:49;100085.30;;;8.22;80.70
78841;BME280;68379;47.190;27.558;2024-03-17T07:32:22;100087.39;;;8.30;80.73
78841;BME280;68379;47.190;27.558;2024-03-17T07:35:00;100089.03;;;8.42;81.22
78841;BME280;68379;47.190;27.558;2024-03-17T07:37:31;100085.35;;;8.48;80.81
78841;BME280;68379;47.190;27.558;2024-03-17T07:40:06;100085.18;;;8.54;80.02
78841;BME280;68379;47.190;27.558;2024-03-17T07:42:42;100085.83;;;8.63;79.23
78841;BME280;68379;47.190;27.558;2024-03-17T07:45:15;100084.20;;;8.71;79.51
78841;BME280;68379;47.190;27.558;2024-03-17T07:47:53;100082.84;;;8.82;80.01
78841;BME280;68379;47.190;27.558;2024-03-17T07:50:27;100083.05;;;8.93;79.66
78841;BME280;68379;47.190;27.558;2024-03-17T07:52:59;100075.81;;;8.99;78.98
78841;BME280;68379;47.190;27.558;2024-03-17T07:55:32;100067.81;;;9.08;79.81
78841;BME280;68379;47.190;27.558;2024-03-17T07:58:05;100065.89;;;9.19;79.61
78841;BME280;68379;47.190;27.558;2024-03-17T08:00:36;100063.69;;;9.23;79.01
78841;BME280;68379;47.190;27.558;2024-03-17T08:03:09;100063.85;;;9.28;79.22
78841;BME280;68379;47.190;27.558;2024-03-17T08:05:41;100064.05;;;9.39;79.15
78841;BME280;68379;47.190;27.558;2024-03-17T08:08:15;100063.84;;;9.51;79.66
78841;BME280;68379;47.190;27.558;2024-03-17T08:10:59;100065.46;;;9.62;78.92
78841;BME280;68379;47.190;27.558;2024-03-17T08:13:35;100067.36;;;9.69;77.81
78841;BME280;68379;47.190;27.558;2024-03-17T08:16:07;100064.53;;;9.69;78.46
78841;BME280;68379;47.190;27.558;2024-03-17T08:18:40;100063.15;;;9.68;78.58
78841;BME280;68379;47.190;27.558;2024-03-17T08:21:25;100063.77;;;9.76;77.94
78841;BME280;68379;47.190;27.558;2024-03-17T08:23:59;100060.83;;;9.85;78.06
78841;BME280;68379;47.190;27.558;2024-03-17T08:26:30;100060.23;;;9.98;77.62
78841;BME280;68379;47.190;27.558;2024-03-17T08:29:02;100050.52;;;10.08;77.93
78841;BME280;68379;47.190;27.558;2024-03-17T08:31:35;100044.36;;;10.18;77.40
78841;BME280;68379;47.190;27.558;2024-03-17T08:34:10;100044.21;;;10.33;77.84
78841;BME280;68379;47.190;27.558;2024-03-17T08:36:41;100039.97;;;10.44;77.24
78841;BME280;68379;47.190;27.558;2024-03-17T08:39:13;100030.41;;;10.49;76.78
78841;BME280;68379;47.190;27.558;2024-03-17T08:41:50;100033.27;;;10.63;75.71
78841;BME280;68379;47.190;27.558;2024-03-17T08:44:22;100031.29;;;10.68;75.85
78841;BME280;68379;47.190;27.558;2024-03-17T08:46:54;100029.70;;;10.73;76.50
78841;BME280;68379;47.190;27.558;2024-03-17T08:49:27;100028.05;;;10.85;76.45
78841;BME280;68379;47.190;27.558;2024-03-17T08:51:59;100028.64;;;10.97;75.42
78841;BME280;68379;47.190;27.558;2024-03-17T08:54:31;100027.30;;;11.04;75.04
78841;BME280;68379;47.190;27.558;2024-03-17T08:57:04;100026.48;;;11.12;76.03
78841;BME280;68379;47.190;27.558;2024-03-17T08:59:35;100019.29;;;11.24;75.40
78841;BME280;68379;47.190;27.558;2024-03-17T09:02:13;100012.80;;;11.36;74.75
78841;BME280;68379;47.190;27.558;2024-03-17T09:04:45;100009.08;;;11.45;73.29
78841;BME280;68379;47.190;27.558;2024-03-17T09:07:17;100007.39;;;11.56;71.75
78841;BME280;68379;47.190;27.558;2024-03-17T09:09:54;100006.66;;;11.70;73.58
78841;BME280;68379;47.190;27.558;2024-03-17T09:15:13;100002.97;;;11.91;72.21
78841;BME280;68379;47.190;27.558;2024-03-17T09:17:47;99999.54;;;12.01;73.26
78841;BME280;68379;47.190;27.558;2024-03-17T09:20:21;100001.05;;;12.11;72.65
78841;BME280;68379;47.190;27.558;2024-03-17T09:22:54;99996.15;;;12.22;71.47
78841;BME280;68379;47.190;27.558;2024-03-17T09:25:25;99995.69;;;12.28;70.34
78841;BME280;68379;47.190;27.558;2024-03-17T09:27:58;99993.75;;;12.40;71.47
78841;BME280;68379;47.190;27.558;2024-03-17T09:30:31;99988.64;;;12.48;71.31
78841;BME280;68379;47.190;27.558;2024-03-17T09:33:03;99991.21;;;12.57;71.57
78841;BME280;68379;47.190;27.558;2024-03-17T09:35:35;99986.76;;;12.69;71.18
78841;BME280;68379;47.190;27.558;2024-03-17T09:38:07;99981.56;;;12.82;70.76
78841;BME280;68379;47.190;27.558;2024-03-17T09:40:38;99970.51;;;12.95;69.63
78841;BME280;68379;47.190;27.558;2024-03-17T09:43:17;99968.61;;;13.05;69.79
78841;BME280;68379;47.190;27.558;2024-03-17T09:45:48;99969.35;;;13.15;67.00
78841;BME280;68379;47.190;27.558;2024-03-17T09:48:26;99973.74;;;13.28;67.10
78841;BME280;68379;47.190;27.558;2024-03-17T09:50:59;99966.91;;;13.41;68.16
78841;BME280;68379;47.190;27.558;2024-03-17T09:53:32;99966.94;;;13.52;67.38
78841;BME280;68379;47.190;27.558;2024-03-17T09:56:06;99964.99;;;13.58;67.33
78841;BME280;68379;47.190;27.558;2024-03-17T09:58:39;99962.65;;;13.62;67.41
78841;BME280;68379;47.190;27.558;2024-03-17T10:01:11;99961.49;;;13.71;66.97
78841;BME280;68379;47.190;27.558;2024-03-17T10:03:45;99959.19;;;13.78;63.33
78841;BME280;68379;47.190;27.558;2024-03-17T10:06:22;99958.96;;;13.83;63.22
78841;BME280;68379;47.190;27.558;2024-03-17T10:08:56;99955.75;;;13.90;64.00
78841;BME280;68379;47.190;27.558;2024-03-17T10:11:35;99958.33;;;13.95;62.54
78841;BME280;68379;47.190;27.558;2024-03-17T10:14:08;99956.38;;;14.02;63.65
78841;BME280;68379;47.190;27.558;2024-03-17T10:16:41;99958.63;;;14.14;63.09
78841;BME280;68379;47.190;27.558;2024-03-17T10:19:22;99955.91;;;14.21;61.62
78841;BME280;68379;47.190;27.558;2024-03-17T10:22:00;99951.13;;;14.31;62.61
78841;BME280;68379;47.190;27.558;2024-03-17T10:24:33;99946.46;;;14.36;62.23
78841;BME280;68379;47.190;27.558;2024-03-17T10:27:12;99944.52;;;14.48;63.02
78841;BME280;68379;47.190;27.558;2024-03-17T10:29:44;99945.01;;;14.60;59.08
78841;BME280;68379;47.190;27.558;2024-03-17T10:32:17;99944.59;;;14.68;60.36
78841;BME280;68379;47.190;27.558;2024-03-17T10:34:54;99937.98;;;14.81;61.22
78841;BME280;68379;47.190;27.558;2024-03-17T10:37:26;99935.23;;;14.92;59.76
78841;BME280;68379;47.190;27.558;2024-03-17T10:39:59;99932.81;;;14.81;55.28
78841;BME280;68379;47.190;27.558;2024-03-17T10:42:33;99932.69;;;14.74;56.62
78841;BME280;68379;47.190;27.558;2024-03-17T10:45:10;99933.13;;;14.82;58.98
78841;BME280;68379;47.190;27.558;2024-03-17T10:47:46;99927.79;;;14.92;57.64
78841;BME280;68379;47.190;27.558;2024-03-17T10:50:21;99926.89;;;15.04;58.02
78841;BME280;68379;47.190;27.558;2024-03-17T10:52:58;99920.61;;;15.15;58.80
78841;BME280;68379;47.190;27.558;2024-03-17T10:55:40;99912.99;;;15.26;59.28
78841;BME280;68379;47.190;27.558;2024-03-17T10:58:22;99911.48;;;15.37;59.01
78841;BME280;68379;47.190;27.558;2024-03-17T11:00:55;99911.03;;;15.48;58.36
78841;BME280;68379;47.190;27.558;2024-03-17T11:03:35;99910.88;;;15.57;57.41
78841;BME280;68379;47.190;27.558;2024-03-17T11:06:08;99907.52;;;15.69;57.85
78841;BME280;68379;47.190;27.558;2024-03-17T11:08:39;99906.53;;;15.83;58.09
78841;BME280;68379;47.190;27.558;2024-03-17T11:11:15;99904.94;;;15.91;57.62
78841;BME280;68379;47.190;27.558;2024-03-17T11:14:19;99901.75;;;15.94;56.60
78841;BME280;68379;47.190;27.558;2024-03-17T11:16:52;99898.92;;;15.99;56.26
78841;BME280;68379;47.190;27.558;2024-03-17T11:19:33;99894.12;;;16.05;55.55
78841;BME280;68379;47.190;27.558;2024-03-17T11:25:38;99888.76;;;16.08;54.47
78841;BME280;68379;47.190;27.558;2024-03-17T11:28:10;99887.73;;;16.07;50.85
78841;BME280;68379;47.190;27.558;2024-03-17T11:30:50;99885.55;;;16.05;52.40
78841;BME280;68379;47.190;27.558;2024-03-17T11:33:51;99883.03;;;16.23;54.41
78841;BME280;68379;47.190;27.558;2024-03-17T11:36:54;99877.33;;;16.48;53.26
78841;BME280;68379;47.190;27.558;2024-03-17T11:42:14;99874.65;;;16.85;51.44
78841;BME280;68379;47.190;27.558;2024-03-17T11:44:57;99876.20;;;16.83;50.89
78841;BME280;68379;47.190;27.558;2024-03-17T11:47:41;99876.42;;;16.74;49.18
78841;BME280;68379;47.190;27.558;2024-03-17T11:50:14;99868.20;;;16.83;50.45
78841;BME280;68379;47.190;27.558;2024-03-17T11:52:46;99864.16;;;17.04;49.24
78841;BME280;68379;47.190;27.558;2024-03-17T11:55:28;99861.91;;;17.16;50.11
78841;BME280;68379;47.190;27.558;2024-03-17T11:58:00;99862.15;;;17.23;50.49
78841;BME280;68379;47.190;27.558;2024-03-17T12:00:31;99861.63;;;17.10;49.42
78841;BME280;68379;47.190;27.558;2024-03-17T12:03:04;99859.24;;;16.83;50.63
78841;BME280;68379;47.190;27.558;2024-03-17T12:05:36;99859.36;;;16.65;50.25
78841;BME280;68379;47.190;27.558;2024-03-17T12:08:22;99854.98;;;16.63;49.53
78841;BME280;68379;47.190;27.558;2024-03-17T12:10:55;99850.17;;;16.66;49.82
78841;BME280;68379;47.190;27.558;2024-03-17T12:13:34;99850.80;;;16.56;48.83
78841;BME280;68379;47.190;27.558;2024-03-17T12:16:14;99842.23;;;16.42;49.75
78841;BME280;68379;47.190;27.558;2024-03-17T12:18:45;99840.00;;;16.30;48.29
78841;BME280;68379;47.190;27.558;2024-03-17T12:21:17;99837.98;;;16.28;49.91
78841;BME280;68379;47.190;27.558;2024-03-17T12:23:49;99837.73;;;16.40;49.99
78841;BME280;68379;47.190;27.558;2024-03-17T12:26:20;99833.90;;;16.64;49.75
78841;BME280;68379;47.190;27.558;2024-03-17T12:28:52;99829.40;;;16.89;48.39
78841;BME280;68379;47.190;27.558;2024-03-17T12:31:24;99830.27;;;17.04;47.19
78841;BME280;68379;47.190;27.558;2024-03-17T12:33:56;99830.61;;;17.09;44.57
78841;BME280;68379;47.190;27.558;2024-03-17T12:36:28;99825.98;;;17.25;47.02
78841;BME280;68379;47.190;27.558;2024-03-17T12:39:20;99818.95;;;17.52;46.04
78841;BME280;68379;47.190;27.558;2024-03-17T12:42:07;99817.23;;;17.54;43.81
78841;BME280;68379;47.190;27.558;2024-03-17T12:44:46;99817.87;;;17.60;46.65
78841;BME280;68379;47.190;27.558;2024-03-17T12:47:19;99821.50;;;17.47;45.10
78841;BME280;68379;47.190;27.558;2024-03-17T12:49:52;99821.23;;;17.16;42.92
78841;BME280;68379;47.190;27.558;2024-03-17T12:52:25;99817.80;;;16.95;45.85
78841;BME280;68379;47.190;27.558;2024-03-17T12:55:00;99817.58;;;16.88;45.42
78841;BME280;68379;47.190;27.558;2024-03-17T12:57:52;99815.27;;;16.79;46.21
78841;BME280;68379;47.190;27.558;2024-03-17T13:00:39;99814.91;;;17.03;46.79
78841;BME280;68379;47.190;27.558;2024-03-17T13:03:21;99810.43;;;17.33;47.00
78841;BME280;68379;47.190;27.558;2024-03-17T13:05:55;99806.01;;;17.61;46.06
78841;BME280;68379;47.190;27.558;2024-03-17T13:08:27;99810.95;;;17.83;44.61
78841;BME280;68379;47.190;27.558;2024-03-17T13:10:59;99808.21;;;17.97;46.42
78841;BME280;68379;47.190;27.558;2024-03-17T13:13:31;99807.77;;;18.03;45.28
78841;BME280;68379;47.190;27.558;2024-03-17T13:16:03;99804.77;;;17.97;44.35
78841;BME280;68379;47.190;27.558;2024-03-17T13:18:35;99807.91;;;17.75;44.43
78841;BME280;68379;47.190;27.558;2024-03-17T13:21:07;99804.45;;;17.53;43.69
78841;BME280;68379;47.190;27.558;2024-03-17T13:23:40;99807.14;;;17.26;44.18
78841;BME280;68379;47.190;27.558;2024-03-17T13:26:11;99805.21;;;17.15;44.73
78841;BME280;68379;47.190;27.558;2024-03-17T13:28:43;99806.04;;;17.08;44.14
78841;BME280;68379;47.190;27.558;2024-03-17T13:31:14;99807.81;;;16.95;43.97